sensor_id;sensor_type;location;lat;lon;timestamp;temperature;humidity
73777;DHT22;62088;50.240;2.696;2023-02-01T00:00:57;6.90;85.80
73777;DHT22;62088;50.240;2.696;2023-02-01T00:03:24;6.90;85.80
73777;DHT22;62088;50.240;2.696;2023-02-01T00:05:58;6.90;85.90
73777;DHT22;62088;50.240;2.696;2023-02-01T00:08:25;7.00;86.00
73777;DHT22;62088;50.240;2.696;2023-02-01T00:11:04;7.00;86.00
73777;DHT22;62088;50.240;2.696;2023-02-01T00:13:33;7.00;86.10
73777;DHT22;62088;50.240;2.696;2023-02-01T00:16:15;7.10;86.10
73777;DHT22;62088;50.240;2.696;2023-02-01T00:18:44;7.10;86.10
73777;DHT22;62088;50.240;2.696;2023-02-01T00:21:12;7.10;86.10
73777;DHT22;62088;50.240;2.696;2023-02-01T00:23:40;7.10;86.10
73777;DHT22;62088;50.240;2.696;2023-02-01T00:26:11;7.10;86.10
73777;DHT22;62088;50.240;2.696;2023-02-01T00:28:40;7.10;86.00
73777;DHT22;62088;50.240;2.696;2023-02-01T00:31:07;7.10;86.00
73777;DHT22;62088;50.240;2.696;2023-02-01T00:33:35;7.10;86.00
73777;DHT22;62088;50.240;2.696;2023-02-01T00:36:04;7.10;85.90
73777;DHT22;62088;50.240;2.696;2023-02-01T00:38:35;7.10;85.90
73777;DHT22;62088;50.240;2.696;2023-02-01T00:41:21;7.10;85.90
73777;DHT22;62088;50.240;2.696;2023-02-01T00:43:50;7.10;85.90
73777;DHT22;62088;50.240;2.696;2023-02-01T00:46:18;7.10;85.80
73777;DHT22;62088;50.240;2.696;2023-02-01T00:48:46;7.00;85.80
73777;DHT22;62088;50.240;2.696;2023-02-01T00:51:16;7.00;85.80
73777;DHT22;62088;50.240;2.696;2023-02-01T00:53:43;7.10;85.80
73777;DHT22;62088;50.240;2.696;2023-02-01T00:56:10;7.00;85.80
73777;DHT22;62088;50.240;2.696;2023-02-01T00:58:37;7.00;85.70
73777;DHT22;62088;50.240;2.696;2023-02-01T01:01:16;7.00;85.70
73777;DHT22;62088;50.240;2.696;2023-02-01T01:03:46;7.00;85.60
73777;DHT22;62088;50.240;2.696;2023-02-01T01:06:15;7.00;85.60
73777;DHT22;62088;50.240;2.696;2023-02-01T01:08:43;7.00;85.60
73777;DHT22;62088;50.240;2.696;2023-02-01T01:11:16;6.90;85.50
73777;DHT22;62088;50.240;2.696;2023-02-01T01:13:49;6.90;85.40
73777;DHT22;62088;50.240;2.696;2023-02-01T01:16:17;6.90;85.40
73777;DHT22;62088;50.240;2.696;2023-02-01T01:18:45;6.90;85.40
73777;DHT22;62088;50.240;2.696;2023-02-01T01:21:14;6.90;85.40
73777;DHT22;62088;50.240;2.696;2023-02-01T01:23:42;6.90;85.40
73777;DHT22;62088;50.240;2.696;2023-02-01T01:26:17;6.90;85.30
73777;DHT22;62088;50.240;2.696;2023-02-01T01:28:45;6.90;85.30
73777;DHT22;62088;50.240;2.696;2023-02-01T01:31:14;6.80;85.30
73777;DHT22;62088;50.240;2.696;2023-02-01T01:33:42;6.80;85.30
73777;DHT22;62088;50.240;2.696;2023-02-01T01:36:11;6.80;85.20
73777;DHT22;62088;50.240;2.696;2023-02-01T01:38:40;6.80;85.20
73777;DHT22;62088;50.240;2.696;2023-02-01T01:41:08;6.70;85.10
73777;DHT22;62088;50.240;2.696;2023-02-01T01:43:52;6.70;85.10
73777;DHT22;62088;50.240;2.696;2023-02-01T01:46:30;6.70;85.10
73777;DHT22;62088;50.240;2.696;2023-02-01T01:49:03;6.70;85.10
73777;DHT22;62088;50.240;2.696;2023-02-01T01:51:35;6.70;85.10
73777;DHT22;62088;50.240;2.696;2023-02-01T01:54:18;6.70;85.10
73777;DHT22;62088;50.240;2.696;2023-02-01T01:56:51;6.70;85.10
73777;DHT22;62088;50.240;2.696;2023-02-01T01:59:20;6.70;85.00
73777;DHT22;62088;50.240;2.696;2023-02-01T02:01:48;6.70;85.00
73777;DHT22;62088;50.240;2.696;2023-02-01T02:04:15;6.70;85.00
73777;DHT22;62088;50.240;2.696;2023-02-01T02:06:52;6.60;85.00
73777;DHT22;62088;50.240;2.696;2023-02-01T02:09:22;6.60;84.90
73777;DHT22;62088;50.240;2.696;2023-02-01T02:11:49;6.60;84.80
73777;DHT22;62088;50.240;2.696;2023-02-01T02:14:18;6.60;84.80
73777;DHT22;62088;50.240;2.696;2023-02-01T02:17:00;6.60;84.60
73777;DHT22;62088;50.240;2.696;2023-02-01T02:22:27;6.50;84.40
73777;DHT22;62088;50.240;2.696;2023-02-01T02:28:08;6.40;84.10
73777;DHT22;62088;50.240;2.696;2023-02-01T02:39:38;6.30;83.80
73777;DHT22;62088;50.240;2.696;2023-02-01T02:50:46;6.10;83.60
73777;DHT22;62088;50.240;2.696;2023-02-01T02:56:33;6.00;83.50
73777;DHT22;62088;50.240;2.696;2023-02-01T02:59:21;6.00;83.50
73777;DHT22;62088;50.240;2.696;2023-02-01T03:02:10;6.00;83.50
73777;DHT22;62088;50.240;2.696;2023-02-01T03:04:56;6.00;83.40
73777;DHT22;62088;50.240;2.696;2023-02-01T03:13:12;5.80;83.50
73777;DHT22;62088;50.240;2.696;2023-02-01T03:15:45;5.80;83.50
73777;DHT22;62088;50.240;2.696;2023-02-01T03:21:48;5.70;83.60
73777;DHT22;62088;50.240;2.696;2023-02-01T03:24:23;5.70;83.60
73777;DHT22;62088;50.240;2.696;2023-02-01T03:27:27;5.70;83.60
73777;DHT22;62088;50.240;2.696;2023-02-01T03:32:35;5.60;83.60
73777;DHT22;62088;50.240;2.696;2023-02-01T03:35:28;5.60;83.60
73777;DHT22;62088;50.240;2.696;2023-02-01T03:38:08;5.50;83.70
73777;DHT22;62088;50.240;2.696;2023-02-01T03:40:38;5.50;83.60
73777;DHT22;62088;50.240;2.696;2023-02-01T03:43:08;5.40;83.70
73777;DHT22;62088;50.240;2.696;2023-02-01T03:45:43;5.40;83.70
73777;DHT22;62088;50.240;2.696;2023-02-01T03:48:13;5.40;83.70
73777;DHT22;62088;50.240;2.696;2023-02-01T03:50:46;5.40;83.70
73777;DHT22;62088;50.240;2.696;2023-02-01T03:53:19;5.40;83.80
73777;DHT22;62088;50.240;2.696;2023-02-01T03:55:48;5.40;83.80
73777;DHT22;62088;50.240;2.696;2023-02-01T03:58:18;5.30;83.80
73777;DHT22;62088;50.240;2.696;2023-02-01T04:00:57;5.40;83.80
73777;DHT22;62088;50.240;2.696;2023-02-01T04:03:26;5.30;83.80
73777;DHT22;62088;50.240;2.696;2023-02-01T04:05:54;5.30;83.80
73777;DHT22;62088;50.240;2.696;2023-02-01T04:08:25;5.20;83.80
73777;DHT22;62088;50.240;2.696;2023-02-01T04:10:52;5.20;83.90
73777;DHT22;62088;50.240;2.696;2023-02-01T04:13:19;5.20;84.00
73777;DHT22;62088;50.240;2.696;2023-02-01T04:15:47;5.20;84.00
73777;DHT22;62088;50.240;2.696;2023-02-01T04:18:16;5.20;84.00
73777;DHT22;62088;50.240;2.696;2023-02-01T04:20:43;5.20;84.10
73777;DHT22;62088;50.240;2.696;2023-02-01T04:23:11;5.20;84.20
73777;DHT22;62088;50.240;2.696;2023-02-01T04:25:38;5.10;84.20
73777;DHT22;62088;50.240;2.696;2023-02-01T04:28:06;5.10;84.30
73777;DHT22;62088;50.240;2.696;2023-02-01T04:30:33;5.10;84.40
73777;DHT22;62088;50.240;2.696;2023-02-01T04:33:01;5.10;84.40
73777;DHT22;62088;50.240;2.696;2023-02-01T04:35:30;5.10;84.40
73777;DHT22;62088;50.240;2.696;2023-02-01T04:37:57;5.10;84.40
73777;DHT22;62088;50.240;2.696;2023-02-01T04:40:24;5.10;84.40
73777;DHT22;62088;50.240;2.696;2023-02-01T04:42:51;5.10;84.40
73777;DHT22;62088;50.240;2.696;2023-02-01T04:45:18;5.10;84.50
73777;DHT22;62088;50.240;2.696;2023-02-01T04:47:46;5.10;84.50
73777;DHT22;62088;50.240;2.696;2023-02-01T04:50:15;5.10;84.60
73777;DHT22;62088;50.240;2.696;2023-02-01T04:52:42;5.20;84.60
73777;DHT22;62088;50.240;2.696;2023-02-01T04:55:09;5.10;84.60
73777;DHT22;62088;50.240;2.696;2023-02-01T04:57:36;5.20;84.70
73777;DHT22;62088;50.240;2.696;2023-02-01T05:00:06;5.20;84.70
73777;DHT22;62088;50.240;2.696;2023-02-01T05:02:34;5.20;84.70
73777;DHT22;62088;50.240;2.696;2023-02-01T05:05:02;5.20;84.70
73777;DHT22;62088;50.240;2.696;2023-02-01T05:07:29;5.20;84.70
73777;DHT22;62088;50.240;2.696;2023-02-01T05:09:56;5.20;84.70
73777;DHT22;62088;50.240;2.696;2023-02-01T05:12:23;5.20;84.70
73777;DHT22;62088;50.240;2.696;2023-02-01T05:15:16;5.20;84.70
73777;DHT22;62088;50.240;2.696;2023-02-01T05:17:43;5.20;84.70
73777;DHT22;62088;50.240;2.696;2023-02-01T05:20:10;5.20;84.70
73777;DHT22;62088;50.240;2.696;2023-02-01T05:22:37;5.30;84.70
73777;DHT22;62088;50.240;2.696;2023-02-01T05:25:05;5.30;84.60
73777;DHT22;62088;50.240;2.696;2023-02-01T05:27:34;5.30;84.60
73777;DHT22;62088;50.240;2.696;2023-02-01T05:30:03;5.30;84.60
73777;DHT22;62088;50.240;2.696;2023-02-01T05:32:30;5.30;84.50
73777;DHT22;62088;50.240;2.696;2023-02-01T05:34:57;5.30;84.40
73777;DHT22;62088;50.240;2.696;2023-02-01T05:37:24;5.30;84.40
73777;DHT22;62088;50.240;2.696;2023-02-01T05:39:51;5.30;84.30
73777;DHT22;62088;50.240;2.696;2023-02-01T05:42:18;5.30;84.30
73777;DHT22;62088;50.240;2.696;2023-02-01T05:44:45;5.30;84.30
73777;DHT22;62088;50.240;2.696;2023-02-01T05:47:12;5.30;84.20
73777;DHT22;62088;50.240;2.696;2023-02-01T05:49:39;5.30;84.10
73777;DHT22;62088;50.240;2.696;2023-02-01T05:52:07;5.30;84.10
73777;DHT22;62088;50.240;2.696;2023-02-01T05:54:34;5.30;84.00
73777;DHT22;62088;50.240;2.696;2023-02-01T05:57:01;5.30;84.00
73777;DHT22;62088;50.240;2.696;2023-02-01T05:59:28;5.30;84.00
73777;DHT22;62088;50.240;2.696;2023-02-01T06:01:56;5.30;84.00
73777;DHT22;62088;50.240;2.696;2023-02-01T06:04:23;5.30;84.00
73777;DHT22;62088;50.240;2.696;2023-02-01T06:06:50;5.30;84.00
73777;DHT22;62088;50.240;2.696;2023-02-01T06:09:17;5.30;84.00
73777;DHT22;62088;50.240;2.696;2023-02-01T06:11:44;5.30;84.10
73777;DHT22;62088;50.240;2.696;2023-02-01T06:14:11;5.20;84.00
73777;DHT22;62088;50.240;2.696;2023-02-01T06:16:38;5.30;84.00
73777;DHT22;62088;50.240;2.696;2023-02-01T06:19:05;5.20;84.00
73777;DHT22;62088;50.240;2.696;2023-02-01T06:21:32;5.30;84.10
73777;DHT22;62088;50.240;2.696;2023-02-01T06:24:00;5.20;84.10
73777;DHT22;62088;50.240;2.696;2023-02-01T06:26:27;5.20;84.10
73777;DHT22;62088;50.240;2.696;2023-02-01T06:28:55;5.20;84.10
73777;DHT22;62088;50.240;2.696;2023-02-01T06:31:23;5.20;84.10
73777;DHT22;62088;50.240;2.696;2023-02-01T06:33:52;5.20;84.10
73777;DHT22;62088;50.240;2.696;2023-02-01T06:36:20;5.20;84.10
73777;DHT22;62088;50.240;2.696;2023-02-01T06:38:48;5.20;84.10
73777;DHT22;62088;50.240;2.696;2023-02-01T06:41:16;5.20;84.10
73777;DHT22;62088;50.240;2.696;2023-02-01T06:43:43;5.20;84.10
73777;DHT22;62088;50.240;2.696;2023-02-01T06:46:13;5.10;84.10
73777;DHT22;62088;50.240;2.696;2023-02-01T06:48:40;5.10;84.10
73777;DHT22;62088;50.240;2.696;2023-02-01T06:51:22;5.10;84.10
73777;DHT22;62088;50.240;2.696;2023-02-01T06:53:50;5.10;84.10
73777;DHT22;62088;50.240;2.696;2023-02-01T06:56:17;5.10;84.10
73777;DHT22;62088;50.240;2.696;2023-02-01T06:58:44;5.00;84.10
73777;DHT22;62088;50.240;2.696;2023-02-01T07:01:12;5.10;84.10
73777;DHT22;62088;50.240;2.696;2023-02-01T07:03:39;5.00;84.20
73777;DHT22;62088;50.240;2.696;2023-02-01T07:06:09;5.00;84.20
73777;DHT22;62088;50.240;2.696;2023-02-01T07:08:37;5.00;84.20
73777;DHT22;62088;50.240;2.696;2023-02-01T07:11:07;5.00;84.20
73777;DHT22;62088;50.240;2.696;2023-02-01T07:13:35;5.00;84.20
73777;DHT22;62088;50.240;2.696;2023-02-01T07:16:08;5.00;84.20
73777;DHT22;62088;50.240;2.696;2023-02-01T07:18:36;5.00;84.20
73777;DHT22;62088;50.240;2.696;2023-02-01T07:21:03;5.00;84.30
73777;DHT22;62088;50.240;2.696;2023-02-01T07:23:30;4.90;84.20
73777;DHT22;62088;50.240;2.696;2023-02-01T07:25:59;4.90;84.20
73777;DHT22;62088;50.240;2.696;2023-02-01T07:28:29;5.00;84.30
73777;DHT22;62088;50.240;2.696;2023-02-01T07:31:05;4.90;84.30
73777;DHT22;62088;50.240;2.696;2023-02-01T07:33:33;5.00;84.30
73777;DHT22;62088;50.240;2.696;2023-02-01T07:36:05;4.90;84.30
73777;DHT22;62088;50.240;2.696;2023-02-01T07:38:32;4.90;84.30
73777;DHT22;62088;50.240;2.696;2023-02-01T07:41:01;4.90;84.30
73777;DHT22;62088;50.240;2.696;2023-02-01T07:43:29;4.90;84.30
73777;DHT22;62088;50.240;2.696;2023-02-01T07:45:56;4.90;84.40
73777;DHT22;62088;50.240;2.696;2023-02-01T07:48:25;4.90;84.50
73777;DHT22;62088;50.240;2.696;2023-02-01T07:51:05;4.90;84.50
73777;DHT22;62088;50.240;2.696;2023-02-01T07:53:34;4.90;84.50
73777;DHT22;62088;50.240;2.696;2023-02-01T07:56:02;4.90;84.60
73777;DHT22;62088;50.240;2.696;2023-02-01T07:58:30;4.90;84.60
73777;DHT22;62088;50.240;2.696;2023-02-01T08:00:57;5.00;84.60
73777;DHT22;62088;50.240;2.696;2023-02-01T08:03:42;5.00;84.60
73777;DHT22;62088;50.240;2.696;2023-02-01T08:06:09;5.00;84.60
73777;DHT22;62088;50.240;2.696;2023-02-01T08:08:36;5.00;84.60
73777;DHT22;62088;50.240;2.696;2023-02-01T08:11:06;5.00;84.70
73777;DHT22;62088;50.240;2.696;2023-02-01T08:13:34;5.00;84.70
73777;DHT22;62088;50.240;2.696;2023-02-01T08:16:03;5.10;84.80
73777;DHT22;62088;50.240;2.696;2023-02-01T08:18:31;5.10;84.90
73777;DHT22;62088;50.240;2.696;2023-02-01T08:21:22;5.20;84.90
73777;DHT22;62088;50.240;2.696;2023-02-01T08:23:50;5.20;84.90
73777;DHT22;62088;50.240;2.696;2023-02-01T08:26:21;5.30;84.90
73777;DHT22;62088;50.240;2.696;2023-02-01T08:28:57;5.30;84.90
73777;DHT22;62088;50.240;2.696;2023-02-01T08:31:26;5.40;84.90
73777;DHT22;62088;50.240;2.696;2023-02-01T08:33:55;5.40;84.80
73777;DHT22;62088;50.240;2.696;2023-02-01T08:36:24;5.40;84.80
73777;DHT22;62088;50.240;2.696;2023-02-01T08:38:51;5.50;84.80
73777;DHT22;62088;50.240;2.696;2023-02-01T08:41:22;5.50;84.80
73777;DHT22;62088;50.240;2.696;2023-02-01T08:43:49;5.60;84.80
73777;DHT22;62088;50.240;2.696;2023-02-01T08:46:17;5.60;84.70
73777;DHT22;62088;50.240;2.696;2023-02-01T08:48:46;5.70;84.60
73777;DHT22;62088;50.240;2.696;2023-02-01T08:51:16;5.70;84.50
73777;DHT22;62088;50.240;2.696;2023-02-01T08:53:44;5.70;84.40
73777;DHT22;62088;50.240;2.696;2023-02-01T08:56:12;5.80;84.40
73777;DHT22;62088;50.240;2.696;2023-02-01T08:58:40;5.80;84.40
73777;DHT22;62088;50.240;2.696;2023-02-01T09:01:09;5.90;84.30
73777;DHT22;62088;50.240;2.696;2023-02-01T09:03:36;5.90;84.30
73777;DHT22;62088;50.240;2.696;2023-02-01T09:06:05;6.00;84.30
73777;DHT22;62088;50.240;2.696;2023-02-01T09:08:34;6.00;84.20
73777;DHT22;62088;50.240;2.696;2023-02-01T09:11:04;6.10;84.10
73777;DHT22;62088;50.240;2.696;2023-02-01T09:13:32;6.20;84.10
73777;DHT22;62088;50.240;2.696;2023-02-01T09:16:00;6.20;84.10
73777;DHT22;62088;50.240;2.696;2023-02-01T09:18:28;6.30;84.10
73777;DHT22;62088;50.240;2.696;2023-02-01T09:20:55;6.40;84.10
73777;DHT22;62088;50.240;2.696;2023-02-01T09:23:22;6.40;84.00
73777;DHT22;62088;50.240;2.696;2023-02-01T09:25:49;6.40;83.90
73777;DHT22;62088;50.240;2.696;2023-02-01T09:28:18;6.50;83.90
73777;DHT22;62088;50.240;2.696;2023-02-01T09:30:45;6.60;83.90
73777;DHT22;62088;50.240;2.696;2023-02-01T09:33:13;6.70;83.80
73777;DHT22;62088;50.240;2.696;2023-02-01T09:35:40;6.70;83.70
73777;DHT22;62088;50.240;2.696;2023-02-01T09:38:07;6.80;83.60
73777;DHT22;62088;50.240;2.696;2023-02-01T09:40:35;6.90;83.50
73777;DHT22;62088;50.240;2.696;2023-02-01T09:45:35;7.00;82.80
73777;DHT22;62088;50.240;2.696;2023-02-01T09:48:17;7.10;82.40
73777;DHT22;62088;50.240;2.696;2023-02-01T09:50:57;7.20;81.90
73777;DHT22;62088;50.240;2.696;2023-02-01T09:53:37;7.20;81.80
73777;DHT22;62088;50.240;2.696;2023-02-01T09:56:27;7.30;81.60
73777;DHT22;62088;50.240;2.696;2023-02-01T10:01:54;7.40;81.40
73777;DHT22;62088;50.240;2.696;2023-02-01T10:04:21;7.50;81.20
73777;DHT22;62088;50.240;2.696;2023-02-01T10:07:00;7.50;81.10
73777;DHT22;62088;50.240;2.696;2023-02-01T10:12:36;7.60;80.90
73777;DHT22;62088;50.240;2.696;2023-02-01T10:26:22;8.10;79.60
73777;DHT22;62088;50.240;2.696;2023-02-01T10:28:52;8.20;79.50
73777;DHT22;62088;50.240;2.696;2023-02-01T10:31:22;8.20;79.10
73777;DHT22;62088;50.240;2.696;2023-02-01T10:33:56;8.30;78.80
73777;DHT22;62088;50.240;2.696;2023-02-01T10:36:37;8.30;78.90
73777;DHT22;62088;50.240;2.696;2023-02-01T10:39:10;8.40;79.00
73777;DHT22;62088;50.240;2.696;2023-02-01T10:41:39;8.40;78.90
73777;DHT22;62088;50.240;2.696;2023-02-01T10:44:16;8.40;78.90
73777;DHT22;62088;50.240;2.696;2023-02-01T10:46:44;8.40;78.30
73777;DHT22;62088;50.240;2.696;2023-02-01T10:49:20;8.40;78.40
73777;DHT22;62088;50.240;2.696;2023-02-01T10:51:58;8.40;78.10
73777;DHT22;62088;50.240;2.696;2023-02-01T10:54:38;8.40;77.80
73777;DHT22;62088;50.240;2.696;2023-02-01T10:57:10;8.50;77.90
73777;DHT22;62088;50.240;2.696;2023-02-01T10:59:37;8.50;77.80
73777;DHT22;62088;50.240;2.696;2023-02-01T11:02:27;8.40;77.50
73777;DHT22;62088;50.240;2.696;2023-02-01T11:05:04;8.50;77.40
73777;DHT22;62088;50.240;2.696;2023-02-01T11:07:32;8.50;77.30
73777;DHT22;62088;50.240;2.696;2023-02-01T11:09:59;8.50;77.30
73777;DHT22;62088;50.240;2.696;2023-02-01T11:12:37;8.50;76.90
73777;DHT22;62088;50.240;2.696;2023-02-01T11:15:21;8.50;76.80
73777;DHT22;62088;50.240;2.696;2023-02-01T11:17:51;8.60;76.80
73777;DHT22;62088;50.240;2.696;2023-02-01T11:20:40;8.70;76.60
73777;DHT22;62088;50.240;2.696;2023-02-01T11:23:28;8.70;76.40
73777;DHT22;62088;50.240;2.696;2023-02-01T11:26:00;8.80;76.30
73777;DHT22;62088;50.240;2.696;2023-02-01T11:28:33;8.80;76.20
73777;DHT22;62088;50.240;2.696;2023-02-01T11:31:07;8.90;76.00
73777;DHT22;62088;50.240;2.696;2023-02-01T11:33:38;9.00;76.20
73777;DHT22;62088;50.240;2.696;2023-02-01T11:36:11;9.10;76.00
73777;DHT22;62088;50.240;2.696;2023-02-01T11:38:39;9.10;75.80
73777;DHT22;62088;50.240;2.696;2023-02-01T11:41:40;9.10;75.10
73777;DHT22;62088;50.240;2.696;2023-02-01T11:44:23;9.10;75.20
73777;DHT22;62088;50.240;2.696;2023-02-01T11:46:53;9.20;75.40
73777;DHT22;62088;50.240;2.696;2023-02-01T11:49:23;9.10;75.40
73777;DHT22;62088;50.240;2.696;2023-02-01T11:54:42;9.10;74.70
73777;DHT22;62088;50.240;2.696;2023-02-01T12:02:55;9.00;74.00
73777;DHT22;62088;50.240;2.696;2023-02-01T12:11:19;8.90;74.20
73777;DHT22;62088;50.240;2.696;2023-02-01T12:14:11;8.90;74.50
73777;DHT22;62088;50.240;2.696;2023-02-01T12:16:45;9.00;74.30
73777;DHT22;62088;50.240;2.696;2023-02-01T12:24:46;9.00;74.50
73777;DHT22;62088;50.240;2.696;2023-02-01T12:32:32;9.20;74.40
73777;DHT22;62088;50.240;2.696;2023-02-01T12:35:33;9.20;74.00
73777;DHT22;62088;50.240;2.696;2023-02-01T12:44:25;9.40;72.00
73777;DHT22;62088;50.240;2.696;2023-02-01T12:46:59;9.50;72.30
73777;DHT22;62088;50.240;2.696;2023-02-01T12:52:49;9.50;73.20
73777;DHT22;62088;50.240;2.696;2023-02-01T13:00:38;9.70;72.10
73777;DHT22;62088;50.240;2.696;2023-02-01T13:03:26;9.80;70.80
73777;DHT22;62088;50.240;2.696;2023-02-01T13:11:44;9.90;70.40
73777;DHT22;62088;50.240;2.696;2023-02-01T13:17:10;9.90;70.50
73777;DHT22;62088;50.240;2.696;2023-02-01T13:22:14;10.00;70.30
73777;DHT22;62088;50.240;2.696;2023-02-01T13:24:43;10.00;70.40
73777;DHT22;62088;50.240;2.696;2023-02-01T13:27:14;10.00;70.50
73777;DHT22;62088;50.240;2.696;2023-02-01T13:29:55;10.00;70.60
73777;DHT22;62088;50.240;2.696;2023-02-01T13:33:01;10.10;69.90
73777;DHT22;62088;50.240;2.696;2023-02-01T13:36:14;10.10;69.70
73777;DHT22;62088;50.240;2.696;2023-02-01T13:41:54;10.00;69.30
73777;DHT22;62088;50.240;2.696;2023-02-01T13:44:37;10.00;69.80
73777;DHT22;62088;50.240;2.696;2023-02-01T13:47:18;9.90;70.30
73777;DHT22;62088;50.240;2.696;2023-02-01T13:49:48;9.90;70.70
73777;DHT22;62088;50.240;2.696;2023-02-01T13:52:40;9.90;71.00
73777;DHT22;62088;50.240;2.696;2023-02-01T13:55:28;9.90;71.60
73777;DHT22;62088;50.240;2.696;2023-02-01T13:58:21;9.90;71.90
73777;DHT22;62088;50.240;2.696;2023-02-01T14:00:50;9.90;72.20
73777;DHT22;62088;50.240;2.696;2023-02-01T14:03:22;9.90;72.00
73777;DHT22;62088;50.240;2.696;2023-02-01T14:08:40;9.80;72.10
73777;DHT22;62088;50.240;2.696;2023-02-01T14:11:31;9.80;72.00
73777;DHT22;62088;50.240;2.696;2023-02-01T14:14:53;9.70;72.20
73777;DHT22;62088;50.240;2.696;2023-02-01T14:21:56;9.70;73.40
73777;DHT22;62088;50.240;2.696;2023-02-01T14:24:33;9.70;73.60
73777;DHT22;62088;50.240;2.696;2023-02-01T14:27:14;9.80;72.80
73777;DHT22;62088;50.240;2.696;2023-02-01T14:29:51;9.80;72.70
73777;DHT22;62088;50.240;2.696;2023-02-01T14:32:30;9.80;72.10
73777;DHT22;62088;50.240;2.696;2023-02-01T14:35:00;9.80;72.10
73777;DHT22;62088;50.240;2.696;2023-02-01T14:37:39;9.80;72.10
73777;DHT22;62088;50.240;2.696;2023-02-01T14:55:43;9.60;72.60
73777;DHT22;62088;50.240;2.696;2023-02-01T15:01:23;9.60;72.80
73777;DHT22;62088;50.240;2.696;2023-02-01T15:09:37;9.40;73.30
73777;DHT22;62088;50.240;2.696;2023-02-01T15:15:03;9.40;73.50
73777;DHT22;62088;50.240;2.696;2023-02-01T15:17:31;9.40;73.70
73777;DHT22;62088;50.240;2.696;2023-02-01T15:20:04;9.30;73.80
73777;DHT22;62088;50.240;2.696;2023-02-01T15:22:39;9.30;74.00
73777;DHT22;62088;50.240;2.696;2023-02-01T15:25:17;9.20;74.10
73777;DHT22;62088;50.240;2.696;2023-02-01T15:27:45;9.20;74.30
73777;DHT22;62088;50.240;2.696;2023-02-01T15:30:28;9.20;74.50
73777;DHT22;62088;50.240;2.696;2023-02-01T15:35:49;9.10;74.90
73777;DHT22;62088;50.240;2.696;2023-02-01T15:38:20;9.10;75.00
73777;DHT22;62088;50.240;2.696;2023-02-01T15:40:55;9.00;75.10
73777;DHT22;62088;50.240;2.696;2023-02-01T15:43:23;9.10;75.30
73777;DHT22;62088;50.240;2.696;2023-02-01T15:45:51;9.00;75.40
73777;DHT22;62088;50.240;2.696;2023-02-01T15:48:25;9.00;75.60
73777;DHT22;62088;50.240;2.696;2023-02-01T15:50:53;9.00;75.60
73777;DHT22;62088;50.240;2.696;2023-02-01T15:53:24;9.00;75.70
73777;DHT22;62088;50.240;2.696;2023-02-01T15:55:54;9.00;75.70
73777;DHT22;62088;50.240;2.696;2023-02-01T15:58:23;8.90;75.70
73777;DHT22;62088;50.240;2.696;2023-02-01T16:00:57;8.90;75.50
73777;DHT22;62088;50.240;2.696;2023-02-01T16:06:07;8.90;75.70
73777;DHT22;62088;50.240;2.696;2023-02-01T16:08:35;8.90;75.80
73777;DHT22;62088;50.240;2.696;2023-02-01T16:13:36;8.90;76.10
73777;DHT22;62088;50.240;2.696;2023-02-01T16:16:03;8.80;76.20
73777;DHT22;62088;50.240;2.696;2023-02-01T16:18:34;8.80;76.30
73777;DHT22;62088;50.240;2.696;2023-02-01T16:21:01;8.80;76.30
73777;DHT22;62088;50.240;2.696;2023-02-01T16:23:28;8.80;76.40
73777;DHT22;62088;50.240;2.696;2023-02-01T16:25:58;8.80;76.50
73777;DHT22;62088;50.240;2.696;2023-02-01T16:28:25;8.70;76.60
73777;DHT22;62088;50.240;2.696;2023-02-01T16:30:52;8.70;76.70
73777;DHT22;62088;50.240;2.696;2023-02-01T16:33:20;8.70;76.80
73777;DHT22;62088;50.240;2.696;2023-02-01T16:35:49;8.70;76.90
73777;DHT22;62088;50.240;2.696;2023-02-01T16:38:19;8.60;77.00
73777;DHT22;62088;50.240;2.696;2023-02-01T16:40:49;8.60;77.10
73777;DHT22;62088;50.240;2.696;2023-02-01T16:43:24;8.60;77.20
73777;DHT22;62088;50.240;2.696;2023-02-01T16:45:54;8.60;77.40
73777;DHT22;62088;50.240;2.696;2023-02-01T16:48:30;8.50;77.50
73777;DHT22;62088;50.240;2.696;2023-02-01T16:51:00;8.50;77.60
73777;DHT22;62088;50.240;2.696;2023-02-01T16:53:30;8.50;77.70
73777;DHT22;62088;50.240;2.696;2023-02-01T16:56:04;8.50;77.80
73777;DHT22;62088;50.240;2.696;2023-02-01T16:58:33;8.40;77.90
73777;DHT22;62088;50.240;2.696;2023-02-01T17:01:01;8.40;78.00
73777;DHT22;62088;50.240;2.696;2023-02-01T17:03:28;8.40;78.10
73777;DHT22;62088;50.240;2.696;2023-02-01T17:05:56;8.40;78.20
73777;DHT22;62088;50.240;2.696;2023-02-01T17:08:45;8.40;78.30
73777;DHT22;62088;50.240;2.696;2023-02-01T17:11:13;8.30;78.30
73777;DHT22;62088;50.240;2.696;2023-02-01T17:13:41;8.30;78.40
73777;DHT22;62088;50.240;2.696;2023-02-01T17:16:20;8.30;78.50
73777;DHT22;62088;50.240;2.696;2023-02-01T17:21:20;8.20;78.60
73777;DHT22;62088;50.240;2.696;2023-02-01T17:23:48;8.20;78.60
73777;DHT22;62088;50.240;2.696;2023-02-01T17:26:15;8.20;78.80
73777;DHT22;62088;50.240;2.696;2023-02-01T17:28:42;8.20;78.90
73777;DHT22;62088;50.240;2.696;2023-02-01T17:31:13;8.20;78.90
73777;DHT22;62088;50.240;2.696;2023-02-01T17:33:43;8.10;79.00
73777;DHT22;62088;50.240;2.696;2023-02-01T17:36:16;8.00;79.10
73777;DHT22;62088;50.240;2.696;2023-02-01T17:38:44;8.10;79.20
73777;DHT22;62088;50.240;2.696;2023-02-01T17:41:19;8.10;79.30
73777;DHT22;62088;50.240;2.696;2023-02-01T17:43:47;8.00;79.40
73777;DHT22;62088;50.240;2.696;2023-02-01T17:46:16;8.00;79.40
73777;DHT22;62088;50.240;2.696;2023-02-01T17:48:44;8.00;79.50
73777;DHT22;62088;50.240;2.696;2023-02-01T17:51:20;8.00;79.70
73777;DHT22;62088;50.240;2.696;2023-02-01T17:53:47;7.90;79.80
73777;DHT22;62088;50.240;2.696;2023-02-01T17:56:16;7.90;79.80
73777;DHT22;62088;50.240;2.696;2023-02-01T17:58:44;7.90;79.90
73777;DHT22;62088;50.240;2.696;2023-02-01T18:01:21;7.90;79.90
73777;DHT22;62088;50.240;2.696;2023-02-01T18:03:48;7.90;80.00
73777;DHT22;62088;50.240;2.696;2023-02-01T18:06:18;7.90;80.10
73777;DHT22;62088;50.240;2.696;2023-02-01T18:08:45;7.90;80.20
73777;DHT22;62088;50.240;2.696;2023-02-01T18:11:21;7.90;80.30
73777;DHT22;62088;50.240;2.696;2023-02-01T18:13:49;7.90;80.40
73777;DHT22;62088;50.240;2.696;2023-02-01T18:16:26;7.90;80.40
73777;DHT22;62088;50.240;2.696;2023-02-01T18:18:54;7.90;80.60
73777;DHT22;62088;50.240;2.696;2023-02-01T18:21:39;7.90;80.60
73777;DHT22;62088;50.240;2.696;2023-02-01T18:24:12;7.90;80.60
73777;DHT22;62088;50.240;2.696;2023-02-01T18:26:41;7.90;80.70
73777;DHT22;62088;50.240;2.696;2023-02-01T18:29:08;7.90;80.70
73777;DHT22;62088;50.240;2.696;2023-02-01T18:31:39;7.90;80.80
73777;DHT22;62088;50.240;2.696;2023-02-01T18:34:10;7.90;80.90
73777;DHT22;62088;50.240;2.696;2023-02-01T18:36:42;7.90;81.00
73777;DHT22;62088;50.240;2.696;2023-02-01T18:39:09;7.90;81.00
73777;DHT22;62088;50.240;2.696;2023-02-01T18:41:37;7.90;81.00
73777;DHT22;62088;50.240;2.696;2023-02-01T18:44:09;7.90;81.00
73777;DHT22;62088;50.240;2.696;2023-02-01T18:46:39;7.90;81.00
73777;DHT22;62088;50.240;2.696;2023-02-01T18:49:06;7.90;81.00
73777;DHT22;62088;50.240;2.696;2023-02-01T18:51:34;7.90;81.00